sensor_id;sensor_type;location;lat;lon;timestamp;P1;durP1;ratioP1;P2;durP2;ratioP2
4051;SDS011;2040;50.924;11.604;2023-07-08T00:00:41;4.30;;;3.00;;
4051;SDS011;2040;50.924;11.604;2023-07-08T00:03:06;5.33;;;2.87;;
4051;SDS011;2040;50.924;11.604;2023-07-08T00:05:32;7.17;;;3.07;;
4051;SDS011;2040;50.924;11.604;2023-07-08T00:07:57;5.60;;;2.47;;
4051;SDS011;2040;50.924;11.604;2023-07-08T00:10:24;6.53;;;2.73;;
4051;SDS011;2040;50.924;11.604;2023-07-08T00:12:52;5.80;;;2.80;;
4051;SDS011;2040;50.924;11.604;2023-07-08T00:15:24;4.73;;;3.50;;
4051;SDS011;2040;50.924;11.604;2023-07-08T00:17:54;7.17;;;3.20;;
4051;SDS011;2040;50.924;11.604;2023-07-08T00:23:02;12.77;;;3.10;;
4051;SDS011;2040;50.924;11.604;2023-07-08T00:25:28;6.20;;;3.63;;
4051;SDS011;2040;50.924;11.604;2023-07-08T00:27:54;6.30;;;3.30;;
4051;SDS011;2040;50.924;11.604;2023-07-08T00:30:22;3.43;;;2.63;;
4051;SDS011;2040;50.924;11.604;2023-07-08T00:32:52;5.13;;;3.43;;
4051;SDS011;2040;50.924;11.604;2023-07-08T00:35:29;7.33;;;4.17;;
4051;SDS011;2040;50.924;11.604;2023-07-08T00:37:58;6.17;;;3.13;;
4051;SDS011;2040;50.924;11.604;2023-07-08T00:40:27;6.03;;;3.33;;
4051;SDS011;2040;50.924;11.604;2023-07-08T00:42:55;7.27;;;3.30;;
4051;SDS011;2040;50.924;11.604;2023-07-08T00:45:35;5.63;;;3.50;;
4051;SDS011;2040;50.924;11.604;2023-07-08T00:50:48;5.00;;;3.40;;
4051;SDS011;2040;50.924;11.604;2023-07-08T00:53:28;4.63;;;2.90;;
4051;SDS011;2040;50.924;11.604;2023-07-08T00:55:59;9.83;;;3.83;;
4051;SDS011;2040;50.924;11.604;2023-07-08T00:59:02;4.73;;;3.30;;
4051;SDS011;2040;50.924;11.604;2023-07-08T01:01:22;9.60;;;3.57;;
4051;SDS011;2040;50.924;11.604;2023-07-08T01:04:00;6.57;;;3.47;;
4051;SDS011;2040;50.924;11.604;2023-07-08T01:06:36;8.20;;;3.77;;
4051;SDS011;2040;50.924;11.604;2023-07-08T01:09:05;6.53;;;3.10;;
4051;SDS011;2040;50.924;11.604;2023-07-08T01:11:33;6.30;;;3.67;;
4051;SDS011;2040;50.924;11.604;2023-07-08T01:14:02;5.77;;;3.37;;
4051;SDS011;2040;50.924;11.604;2023-07-08T01:16:31;6.97;;;3.40;;
4051;SDS011;2040;50.924;11.604;2023-07-08T01:18:58;7.80;;;3.50;;
4051;SDS011;2040;50.924;11.604;2023-07-08T01:21:35;8.87;;;3.10;;
4051;SDS011;2040;50.924;11.604;2023-07-08T01:24:04;9.27;;;3.90;;
4051;SDS011;2040;50.924;11.604;2023-07-08T01:26:33;4.67;;;3.70;;
4051;SDS011;2040;50.924;11.604;2023-07-08T01:29:02;9.73;;;3.33;;
4051;SDS011;2040;50.924;11.604;2023-07-08T01:31:28;8.73;;;3.83;;
4051;SDS011;2040;50.924;11.604;2023-07-08T01:33:54;5.93;;;3.60;;
4051;SDS011;2040;50.924;11.604;2023-07-08T01:36:20;6.50;;;3.90;;
4051;SDS011;2040;50.924;11.604;2023-07-08T01:38:46;8.80;;;3.90;;
4051;SDS011;2040;50.924;11.604;2023-07-08T01:41:12;7.83;;;4.07;;
4051;SDS011;2040;50.924;11.604;2023-07-08T01:43:40;5.20;;;3.53;;
4051;SDS011;2040;50.924;11.604;2023-07-08T01:46:13;5.17;;;3.60;;
4051;SDS011;2040;50.924;11.604;2023-07-08T01:48:45;7.53;;;4.10;;
4051;SDS011;2040;50.924;11.604;2023-07-08T01:51:16;11.47;;;4.00;;
4051;SDS011;2040;50.924;11.604;2023-07-08T01:53:42;6.87;;;3.63;;
4051;SDS011;2040;50.924;11.604;2023-07-08T01:56:08;8.13;;;3.57;;
4051;SDS011;2040;50.924;11.604;2023-07-08T01:58:36;6.67;;;3.17;;
4051;SDS011;2040;50.924;11.604;2023-07-08T02:01:02;7.27;;;3.63;;
4051;SDS011;2040;50.924;11.604;2023-07-08T02:03:28;6.57;;;3.90;;
4051;SDS011;2040;50.924;11.604;2023-07-08T02:05:54;8.73;;;3.40;;
4051;SDS011;2040;50.924;11.604;2023-07-08T02:08:20;12.50;;;3.77;;
4051;SDS011;2040;50.924;11.604;2023-07-08T02:10:49;5.73;;;3.80;;
4051;SDS011;2040;50.924;11.604;2023-07-08T02:13:16;6.67;;;3.50;;
4051;SDS011;2040;50.924;11.604;2023-07-08T02:15:41;5.83;;;3.30;;
4051;SDS011;2040;50.924;11.604;2023-07-08T02:18:07;6.43;;;3.10;;
4051;SDS011;2040;50.924;11.604;2023-07-08T02:20:32;7.70;;;4.20;;
4051;SDS011;2040;50.924;11.604;2023-07-08T02:22:58;16.40;;;3.77;;
4051;SDS011;2040;50.924;11.604;2023-07-08T02:25:24;4.43;;;3.60;;
4051;SDS011;2040;50.924;11.604;2023-07-08T02:27:49;6.70;;;3.77;;
4051;SDS011;2040;50.924;11.604;2023-07-08T02:30:15;3.70;;;3.00;;
4051;SDS011;2040;50.924;11.604;2023-07-08T02:32:40;8.70;;;3.37;;
4051;SDS011;2040;50.924;11.604;2023-07-08T02:35:06;5.90;;;4.07;;
4051;SDS011;2040;50.924;11.604;2023-07-08T02:37:33;6.87;;;3.40;;
4051;SDS011;2040;50.924;11.604;2023-07-08T02:39:59;5.53;;;3.43;;
4051;SDS011;2040;50.924;11.604;2023-07-08T02:42:25;5.90;;;4.03;;
4051;SDS011;2040;50.924;11.604;2023-07-08T02:44:51;7.27;;;4.20;;
4051;SDS011;2040;50.924;11.604;2023-07-08T02:47:17;7.20;;;4.43;;
4051;SDS011;2040;50.924;11.604;2023-07-08T02:49:42;6.17;;;4.20;;
4051;SDS011;2040;50.924;11.604;2023-07-08T02:52:08;6.17;;;4.07;;
4051;SDS011;2040;50.924;11.604;2023-07-08T02:54:34;5.57;;;3.60;;
4051;SDS011;2040;50.924;11.604;2023-07-08T02:56:59;4.50;;;3.23;;
4051;SDS011;2040;50.924;11.604;2023-07-08T02:59:25;6.90;;;4.07;;
4051;SDS011;2040;50.924;11.604;2023-07-08T03:01:53;6.07;;;3.90;;
4051;SDS011;2040;50.924;11.604;2023-07-08T03:04:18;7.30;;;4.30;;
4051;SDS011;2040;50.924;11.604;2023-07-08T03:06:46;4.87;;;3.80;;
4051;SDS011;2040;50.924;11.604;2023-07-08T03:09:14;4.50;;;3.60;;
4051;SDS011;2040;50.924;11.604;2023-07-08T03:11:40;8.27;;;4.10;;
4051;SDS011;2040;50.924;11.604;2023-07-08T03:14:06;8.80;;;4.40;;
4051;SDS011;2040;50.924;11.604;2023-07-08T03:16:31;4.70;;;4.10;;
4051;SDS011;2040;50.924;11.604;2023-07-08T03:19:00;6.70;;;3.93;;
4051;SDS011;2040;50.924;11.604;2023-07-08T03:21:26;8.20;;;4.80;;
4051;SDS011;2040;50.924;11.604;2023-07-08T03:23:52;8.10;;;4.30;;
4051;SDS011;2040;50.924;11.604;2023-07-08T03:26:18;7.07;;;5.33;;
4051;SDS011;2040;50.924;11.604;2023-07-08T03:28:46;7.20;;;4.40;;
4051;SDS011;2040;50.924;11.604;2023-07-08T03:31:12;10.40;;;4.57;;
4051;SDS011;2040;50.924;11.604;2023-07-08T03:33:38;11.40;;;3.70;;
4051;SDS011;2040;50.924;11.604;2023-07-08T03:36:04;9.00;;;4.90;;
4051;SDS011;2040;50.924;11.604;2023-07-08T03:38:35;8.60;;;4.93;;
4051;SDS011;2040;50.924;11.604;2023-07-08T03:41:00;6.53;;;3.93;;
4051;SDS011;2040;50.924;11.604;2023-07-08T03:43:26;8.20;;;4.00;;
4051;SDS011;2040;50.924;11.604;2023-07-08T03:45:51;6.27;;;4.00;;
4051;SDS011;2040;50.924;11.604;2023-07-08T03:48:18;6.07;;;4.33;;
4051;SDS011;2040;50.924;11.604;2023-07-08T03:50:44;8.63;;;4.70;;
4051;SDS011;2040;50.924;11.604;2023-07-08T03:53:09;7.30;;;4.60;;
4051;SDS011;2040;50.924;11.604;2023-07-08T03:55:35;12.83;;;5.50;;
4051;SDS011;2040;50.924;11.604;2023-07-08T03:58:00;6.83;;;3.67;;
4051;SDS011;2040;50.924;11.604;2023-07-08T04:00:26;9.00;;;4.33;;
4051;SDS011;2040;50.924;11.604;2023-07-08T04:02:51;8.67;;;4.50;;
4051;SDS011;2040;50.924;11.604;2023-07-08T04:05:18;7.43;;;4.37;;
4051;SDS011;2040;50.924;11.604;2023-07-08T04:07:48;7.20;;;5.17;;
4051;SDS011;2040;50.924;11.604;2023-07-08T04:10:14;7.57;;;3.80;;
4051;SDS011;2040;50.924;11.604;2023-07-08T04:12:40;7.80;;;4.17;;
4051;SDS011;2040;50.924;11.604;2023-07-08T04:15:09;5.17;;;3.40;;
4051;SDS011;2040;50.924;11.604;2023-07-08T04:17:37;7.27;;;4.20;;
4051;SDS011;2040;50.924;11.604;2023-07-08T04:20:07;8.60;;;4.93;;
4051;SDS011;2040;50.924;11.604;2023-07-08T04:22:36;5.17;;;3.93;;
4051;SDS011;2040;50.924;11.604;2023-07-08T04:25:02;9.73;;;5.30;;
4051;SDS011;2040;50.924;11.604;2023-07-08T04:27:29;5.47;;;4.20;;
4051;SDS011;2040;50.924;11.604;2023-07-08T04:29:55;5.40;;;3.57;;
4051;SDS011;2040;50.924;11.604;2023-07-08T04:32:20;8.03;;;4.87;;
4051;SDS011;2040;50.924;11.604;2023-07-08T04:34:49;9.03;;;3.63;;
4051;SDS011;2040;50.924;11.604;2023-07-08T04:37:18;5.77;;;4.23;;
4051;SDS011;2040;50.924;11.604;2023-07-08T04:39:44;9.73;;;4.67;;
4051;SDS011;2040;50.924;11.604;2023-07-08T04:42:10;7.20;;;4.60;;
4051;SDS011;2040;50.924;11.604;2023-07-08T04:44:40;6.00;;;4.57;;
4051;SDS011;2040;50.924;11.604;2023-07-08T04:47:06;8.17;;;4.37;;
4051;SDS011;2040;50.924;11.604;2023-07-08T04:49:33;9.70;;;4.63;;
4051;SDS011;2040;50.924;11.604;2023-07-08T04:51:59;6.07;;;3.93;;
4051;SDS011;2040;50.924;11.604;2023-07-08T04:54:26;8.20;;;3.93;;
4051;SDS011;2040;50.924;11.604;2023-07-08T04:56:53;5.30;;;4.17;;
4051;SDS011;2040;50.924;11.604;2023-07-08T04:59:20;8.40;;;5.40;;
4051;SDS011;2040;50.924;11.604;2023-07-08T05:01:47;8.07;;;4.40;;
4051;SDS011;2040;50.924;11.604;2023-07-08T05:04:14;8.37;;;4.30;;
4051;SDS011;2040;50.924;11.604;2023-07-08T05:06:41;6.03;;;5.00;;
4051;SDS011;2040;50.924;11.604;2023-07-08T05:09:07;6.57;;;4.40;;
4051;SDS011;2040;50.924;11.604;2023-07-08T05:11:33;6.97;;;4.70;;
4051;SDS011;2040;50.924;11.604;2023-07-08T05:14:00;8.10;;;4.00;;
4051;SDS011;2040;50.924;11.604;2023-07-08T05:16:26;9.47;;;4.80;;
4051;SDS011;2040;50.924;11.604;2023-07-08T05:18:52;6.10;;;4.43;;
4051;SDS011;2040;50.924;11.604;2023-07-08T05:21:18;7.67;;;4.03;;
4051;SDS011;2040;50.924;11.604;2023-07-08T05:23:45;10.40;;;4.33;;
4051;SDS011;2040;50.924;11.604;2023-07-08T05:26:11;6.30;;;4.33;;
4051;SDS011;2040;50.924;11.604;2023-07-08T05:28:36;9.23;;;5.20;;
4051;SDS011;2040;50.924;11.604;2023-07-08T05:31:02;8.00;;;4.70;;
4051;SDS011;2040;50.924;11.604;2023-07-08T05:33:28;7.00;;;4.67;;
4051;SDS011;2040;50.924;11.604;2023-07-08T05:35:55;10.73;;;5.30;;
4051;SDS011;2040;50.924;11.604;2023-07-08T05:38:21;6.07;;;4.40;;
4051;SDS011;2040;50.924;11.604;2023-07-08T05:40:48;8.97;;;5.30;;
4051;SDS011;2040;50.924;11.604;2023-07-08T05:43:15;8.77;;;5.03;;
4051;SDS011;2040;50.924;11.604;2023-07-08T05:45:41;8.03;;;4.60;;
4051;SDS011;2040;50.924;11.604;2023-07-08T05:48:07;7.50;;;5.13;;
4051;SDS011;2040;50.924;11.604;2023-07-08T05:50:33;9.73;;;4.80;;
4051;SDS011;2040;50.924;11.604;2023-07-08T05:52:58;8.83;;;5.40;;
4051;SDS011;2040;50.924;11.604;2023-07-08T05:55:24;10.03;;;4.90;;
4051;SDS011;2040;50.924;11.604;2023-07-08T05:57:49;8.30;;;5.03;;
4051;SDS011;2040;50.924;11.604;2023-07-08T06:00:15;6.40;;;4.53;;
4051;SDS011;2040;50.924;11.604;2023-07-08T06:02:40;9.03;;;4.60;;
4051;SDS011;2040;50.924;11.604;2023-07-08T06:05:06;9.10;;;4.73;;
4051;SDS011;2040;50.924;11.604;2023-07-08T06:07:32;11.73;;;5.40;;
4051;SDS011;2040;50.924;11.604;2023-07-08T06:09:57;9.87;;;5.27;;
4051;SDS011;2040;50.924;11.604;2023-07-08T06:12:24;8.80;;;4.60;;
4051;SDS011;2040;50.924;11.604;2023-07-08T06:14:50;8.97;;;4.10;;
4051;SDS011;2040;50.924;11.604;2023-07-08T06:17:16;4.50;;;3.57;;
4051;SDS011;2040;50.924;11.604;2023-07-08T06:19:42;8.17;;;5.10;;
4051;SDS011;2040;50.924;11.604;2023-07-08T06:22:08;9.13;;;4.70;;
4051;SDS011;2040;50.924;11.604;2023-07-08T06:24:34;9.80;;;4.70;;
4051;SDS011;2040;50.924;11.604;2023-07-08T06:26:59;6.40;;;4.40;;
4051;SDS011;2040;50.924;11.604;2023-07-08T06:29:25;6.90;;;4.50;;
4051;SDS011;2040;50.924;11.604;2023-07-08T06:31:51;12.00;;;5.30;;
4051;SDS011;2040;50.924;11.604;2023-07-08T06:34:17;6.90;;;4.90;;
4051;SDS011;2040;50.924;11.604;2023-07-08T06:36:44;10.20;;;5.27;;
4051;SDS011;2040;50.924;11.604;2023-07-08T06:39:09;7.30;;;4.33;;
4051;SDS011;2040;50.924;11.604;2023-07-08T06:41:36;7.97;;;5.03;;
4051;SDS011;2040;50.924;11.604;2023-07-08T06:44:02;8.30;;;4.90;;
4051;SDS011;2040;50.924;11.604;2023-07-08T06:46:28;11.30;;;6.43;;
4051;SDS011;2040;50.924;11.604;2023-07-08T06:48:54;5.90;;;4.60;;
4051;SDS011;2040;50.924;11.604;2023-07-08T06:51:20;11.67;;;5.83;;
4051;SDS011;2040;50.924;11.604;2023-07-08T06:53:46;7.70;;;4.90;;
4051;SDS011;2040;50.924;11.604;2023-07-08T06:56:11;5.77;;;4.80;;
4051;SDS011;2040;50.924;11.604;2023-07-08T06:58:37;8.90;;;5.27;;
4051;SDS011;2040;50.924;11.604;2023-07-08T07:01:03;7.33;;;5.23;;
4051;SDS011;2040;50.924;11.604;2023-07-08T07:03:28;7.77;;;4.80;;
4051;SDS011;2040;50.924;11.604;2023-07-08T07:05:54;11.70;;;5.30;;
4051;SDS011;2040;50.924;11.604;2023-07-08T07:08:19;7.53;;;4.47;;
4051;SDS011;2040;50.924;11.604;2023-07-08T07:10:45;8.60;;;5.20;;
4051;SDS011;2040;50.924;11.604;2023-07-08T07:13:10;9.93;;;4.73;;
4051;SDS011;2040;50.924;11.604;2023-07-08T07:15:36;8.63;;;5.10;;
4051;SDS011;2040;50.924;11.604;2023-07-08T07:18:01;10.27;;;6.00;;
4051;SDS011;2040;50.924;11.604;2023-07-08T07:20:27;7.50;;;4.90;;
4051;SDS011;2040;50.924;11.604;2023-07-08T07:22:54;6.87;;;5.17;;
4051;SDS011;2040;50.924;11.604;2023-07-08T07:25:20;9.53;;;5.33;;
4051;SDS011;2040;50.924;11.604;2023-07-08T07:27:46;8.07;;;5.10;;
4051;SDS011;2040;50.924;11.604;2023-07-08T07:30:11;9.00;;;4.77;;
4051;SDS011;2040;50.924;11.604;2023-07-08T07:32:40;7.40;;;4.40;;
4051;SDS011;2040;50.924;11.604;2023-07-08T07:35:10;9.20;;;5.07;;
4051;SDS011;2040;50.924;11.604;2023-07-08T07:37:40;8.20;;;4.70;;
4051;SDS011;2040;50.924;11.604;2023-07-08T07:40:10;8.97;;;4.90;;
4051;SDS011;2040;50.924;11.604;2023-07-08T07:42:39;6.53;;;4.57;;
4051;SDS011;2040;50.924;11.604;2023-07-08T07:45:05;8.07;;;4.57;;
4051;SDS011;2040;50.924;11.604;2023-07-08T07:47:31;6.80;;;4.20;;
4051;SDS011;2040;50.924;11.604;2023-07-08T07:49:57;8.10;;;4.70;;
4051;SDS011;2040;50.924;11.604;2023-07-08T07:52:23;5.40;;;4.53;;
4051;SDS011;2040;50.924;11.604;2023-07-08T07:54:49;5.40;;;3.87;;
4051;SDS011;2040;50.924;11.604;2023-07-08T07:57:19;7.43;;;3.80;;
4051;SDS011;2040;50.924;11.604;2023-07-08T07:59:45;7.17;;;5.10;;
4051;SDS011;2040;50.924;11.604;2023-07-08T08:02:11;6.57;;;3.80;;
4051;SDS011;2040;50.924;11.604;2023-07-08T08:04:37;7.80;;;4.30;;
4051;SDS011;2040;50.924;11.604;2023-07-08T08:07:02;5.60;;;4.03;;
4051;SDS011;2040;50.924;11.604;2023-07-08T08:09:28;8.90;;;4.80;;
4051;SDS011;2040;50.924;11.604;2023-07-08T08:11:54;5.80;;;4.50;;
4051;SDS011;2040;50.924;11.604;2023-07-08T08:14:20;7.33;;;4.87;;
4051;SDS011;2040;50.924;11.604;2023-07-08T08:16:45;7.17;;;4.47;;
4051;SDS011;2040;50.924;11.604;2023-07-08T08:19:11;4.93;;;3.57;;
4051;SDS011;2040;50.924;11.604;2023-07-08T08:21:37;6.97;;;4.43;;
4051;SDS011;2040;50.924;11.604;2023-07-08T08:24:02;4.80;;;4.07;;
4051;SDS011;2040;50.924;11.604;2023-07-08T08:26:28;8.03;;;4.50;;
4051;SDS011;2040;50.924;11.604;2023-07-08T08:28:55;6.33;;;4.07;;
4051;SDS011;2040;50.924;11.604;2023-07-08T08:31:20;12.30;;;4.20;;
4051;SDS011;2040;50.924;11.604;2023-07-08T08:33:46;6.93;;;3.77;;
4051;SDS011;2040;50.924;11.604;2023-07-08T08:36:12;11.23;;;4.13;;
4051;SDS011;2040;50.924;11.604;2023-07-08T08:38:37;4.57;;;3.77;;
4051;SDS011;2040;50.924;11.604;2023-07-08T08:41:04;5.60;;;3.80;;
4051;SDS011;2040;50.924;11.604;2023-07-08T08:43:40;7.27;;;4.97;;
4051;SDS011;2040;50.924;11.604;2023-07-08T08:49:26;7.47;;;4.60;;
4051;SDS011;2040;50.924;11.604;2023-07-08T08:51:55;8.03;;;4.60;;
4051;SDS011;2040;50.924;11.604;2023-07-08T08:54:23;5.17;;;4.23;;
4051;SDS011;2040;50.924;11.604;2023-07-08T08:56:53;5.77;;;3.87;;
4051;SDS011;2040;50.924;11.604;2023-07-08T09:05:06;7.03;;;4.40;;
4051;SDS011;2040;50.924;11.604;2023-07-08T09:07:36;5.70;;;3.70;;
4051;SDS011;2040;50.924;11.604;2023-07-08T09:10:21;6.20;;;3.57;;
4051;SDS011;2040;50.924;11.604;2023-07-08T09:13:00;10.50;;;4.57;;
4051;SDS011;2040;50.924;11.604;2023-07-08T09:15:28;4.93;;;3.70;;
4051;SDS011;2040;50.924;11.604;2023-07-08T09:17:53;5.23;;;4.13;;
4051;SDS011;2040;50.924;11.604;2023-07-08T09:20:25;5.40;;;4.03;;
4051;SDS011;2040;50.924;11.604;2023-07-08T09:23:00;6.57;;;3.87;;
4051;SDS011;2040;50.924;11.604;2023-07-08T09:25:35;7.50;;;3.27;;
4051;SDS011;2040;50.924;11.604;2023-07-08T09:28:08;7.73;;;3.57;;
4051;SDS011;2040;50.924;11.604;2023-07-08T09:30:33;5.67;;;3.13;;
4051;SDS011;2040;50.924;11.604;2023-07-08T09:33:02;6.80;;;4.10;;
4051;SDS011;2040;50.924;11.604;2023-07-08T09:35:37;6.50;;;3.30;;
4051;SDS011;2040;50.924;11.604;2023-07-08T09:38:08;4.70;;;2.77;;
4051;SDS011;2040;50.924;11.604;2023-07-08T09:40:38;4.60;;;3.20;;
4051;SDS011;2040;50.924;11.604;2023-07-08T09:43:16;6.60;;;3.30;;
4051;SDS011;2040;50.924;11.604;2023-07-08T09:45:48;5.27;;;3.03;;
4051;SDS011;2040;50.924;11.604;2023-07-08T09:48:18;7.60;;;3.13;;
4051;SDS011;2040;50.924;11.604;2023-07-08T09:51:04;5.07;;;3.13;;
4051;SDS011;2040;50.924;11.604;2023-07-08T09:53:36;4.97;;;2.90;;
4051;SDS011;2040;50.924;11.604;2023-07-08T09:56:20;3.73;;;3.10;;
4051;SDS011;2040;50.924;11.604;2023-07-08T09:59:02;3.27;;;2.70;;
4051;SDS011;2040;50.924;11.604;2023-07-08T10:01:27;3.73;;;2.70;;
4051;SDS011;2040;50.924;11.604;2023-07-08T10:03:58;4.97;;;2.80;;
4051;SDS011;2040;50.924;11.604;2023-07-08T10:06:33;4.80;;;3.03;;
4051;SDS011;2040;50.924;11.604;2023-07-08T10:09:23;6.17;;;3.80;;
4051;SDS011;2040;50.924;11.604;2023-07-08T10:15:00;6.07;;;2.83;;
4051;SDS011;2040;50.924;11.604;2023-07-08T10:17:38;5.80;;;2.90;;
4051;SDS011;2040;50.924;11.604;2023-07-08T10:26:46;4.93;;;2.77;;
4051;SDS011;2040;50.924;11.604;2023-07-08T10:29:41;6.00;;;3.30;;
4051;SDS011;2040;50.924;11.604;2023-07-08T10:35:28;4.30;;;2.47;;
4051;SDS011;2040;50.924;11.604;2023-07-08T10:44:29;3.33;;;2.77;;
4051;SDS011;2040;50.924;11.604;2023-07-08T10:50:47;4.57;;;3.07;;
4051;SDS011;2040;50.924;11.604;2023-07-08T10:59:38;4.93;;;3.00;;
4051;SDS011;2040;50.924;11.604;2023-07-08T11:02:52;4.47;;;2.80;;
4051;SDS011;2040;50.924;11.604;2023-07-08T11:05:23;4.30;;;2.40;;
4051;SDS011;2040;50.924;11.604;2023-07-08T11:08:16;6.90;;;3.00;;
4051;SDS011;2040;50.924;11.604;2023-07-08T11:13:24;3.83;;;2.80;;
4051;SDS011;2040;50.924;11.604;2023-07-08T11:15:58;6.23;;;2.93;;
4051;SDS011;2040;50.924;11.604;2023-07-08T11:18:48;6.80;;;3.43;;
4051;SDS011;2040;50.924;11.604;2023-07-08T11:21:25;4.70;;;3.23;;
4051;SDS011;2040;50.924;11.604;2023-07-08T11:24:01;4.63;;;2.93;;
4051;SDS011;2040;50.924;11.604;2023-07-08T11:26:47;4.37;;;2.97;;
4051;SDS011;2040;50.924;11.604;2023-07-08T11:31:48;4.10;;;3.20;;
4051;SDS011;2040;50.924;11.604;2023-07-08T11:34:20;5.53;;;3.80;;
4051;SDS011;2040;50.924;11.604;2023-07-08T11:36:47;4.80;;;3.10;;
4051;SDS011;2040;50.924;11.604;2023-07-08T11:39:31;6.13;;;3.10;;
4051;SDS011;2040;50.924;11.604;2023-07-08T11:42:11;5.10;;;3.30;;
4051;SDS011;2040;50.924;11.604;2023-07-08T11:44:51;5.27;;;3.07;;
4051;SDS011;2040;50.924;11.604;2023-07-08T11:47:24;4.47;;;3.17;;
4051;SDS011;2040;50.924;11.604;2023-07-08T11:49:56;4.83;;;3.17;;
4051;SDS011;2040;50.924;11.604;2023-07-08T12:01:24;5.47;;;3.13;;
4051;SDS011;2040;50.924;11.604;2023-07-08T12:07:40;5.67;;;3.60;;
4051;SDS011;2040;50.924;11.604;2023-07-08T12:10:31;2.80;;;2.50;;
4051;SDS011;2040;50.924;11.604;2023-07-08T12:13:03;3.83;;;2.73;;
4051;SDS011;2040;50.924;11.604;2023-07-08T12:15:56;4.90;;;3.40;;
4051;SDS011;2040;50.924;11.604;2023-07-08T12:19:05;4.17;;;3.00;;
4051;SDS011;2040;50.924;11.604;2023-07-08T12:21:59;4.23;;;2.90;;
4051;SDS011;2040;50.924;11.604;2023-07-08T12:24:49;5.60;;;3.30;;
4051;SDS011;2040;50.924;11.604;2023-07-08T12:27:15;4.43;;;2.97;;
4051;SDS011;2040;50.924;11.604;2023-07-08T12:41:35;4.77;;;2.80;;
4051;SDS011;2040;50.924;11.604;2023-07-08T12:45:07;4.40;;;3.43;;
4051;SDS011;2040;50.924;11.604;2023-07-08T12:48:15;6.23;;;3.73;;
4051;SDS011;2040;50.924;11.604;2023-07-08T12:51:09;3.97;;;2.83;;
4051;SDS011;2040;50.924;11.604;2023-07-08T12:54:21;4.87;;;2.87;;
4051;SDS011;2040;50.924;11.604;2023-07-08T12:58:19;4.47;;;3.07;;
4051;SDS011;2040;50.924;11.604;2023-07-08T13:01:03;3.73;;;2.83;;
4051;SDS011;2040;50.924;11.604;2023-07-08T13:08:04;3.83;;;2.70;;
4051;SDS011;2040;50.924;11.604;2023-07-08T13:17:40;6.07;;;3.67;;
4051;SDS011;2040;50.924;11.604;2023-07-08T13:20:23;4.53;;;3.40;;
4051;SDS011;2040;50.924;11.604;2023-07-08T13:23:01;5.70;;;3.67;;
4051;SDS011;2040;50.924;11.604;2023-07-08T13:25:31;8.47;;;3.43;;
4051;SDS011;2040;50.924;11.604;2023-07-08T13:27:58;4.32;;;3.35;;
4051;SDS011;2040;50.924;11.604;2023-07-08T13:30:28;5.93;;;3.43;;
4051;SDS011;2040;50.924;11.604;2023-07-08T13:33:29;5.37;;;3.53;;
4051;SDS011;2040;50.924;11.604;2023-07-08T13:36:11;5.17;;;3.33;;
4051;SDS011;2040;50.924;11.604;2023-07-08T13:38:51;5.13;;;2.70;;
4051;SDS011;2040;50.924;11.604;2023-07-08T13:41:19;4.80;;;3.42;;
4051;SDS011;2040;50.924;11.604;2023-07-08T13:47:33;5.20;;;3.27;;
4051;SDS011;2040;50.924;11.604;2023-07-08T13:50:07;4.87;;;3.10;;
4051;SDS011;2040;50.924;11.604;2023-07-08T13:56:29;4.43;;;3.05;;
4051;SDS011;2040;50.924;11.604;2023-07-08T13:59:03;3.67;;;3.10;;
4051;SDS011;2040;50.924;11.604;2023-07-08T14:01:42;6.47;;;3.38;;
4051;SDS011;2040;50.924;11.604;2023-07-08T14:04:10;5.47;;;3.55;;
4051;SDS011;2040;50.924;11.604;2023-07-08T14:06:38;5.22;;;3.30;;
4051;SDS011;2040;50.924;11.604;2023-07-08T14:09:16;5.30;;;3.10;;
4051;SDS011;2040;50.924;11.604;2023-07-08T14:11:49;5.35;;;3.50;;
4051;SDS011;2040;50.924;11.604;2023-07-08T14:14:16;4.15;;;3.33;;
4051;SDS011;2040;50.924;11.604;2023-07-08T14:16:53;5.45;;;3.40;;
4051;SDS011;2040;50.924;11.604;2023-07-08T14:19:32;7.20;;;3.20;;
4051;SDS011;2040;50.924;11.604;2023-07-08T14:24:55;4.13;;;3.53;;
4051;SDS011;2040;50.924;11.604;2023-07-08T14:27:30;5.07;;;3.57;;
4051;SDS011;2040;50.924;11.604;2023-07-08T14:30:03;5.03;;;3.90;;
4051;SDS011;2040;50.924;11.604;2023-07-08T14:32:40;4.40;;;3.30;;
4051;SDS011;2040;50.924;11.604;2023-07-08T14:35:24;4.47;;;3.10;;
4051;SDS011;2040;50.924;11.604;2023-07-08T14:37:59;4.10;;;3.20;;
4051;SDS011;2040;50.924;11.604;2023-07-08T14:40:40;7.47;;;3.63;;
4051;SDS011;2040;50.924;11.604;2023-07-08T14:43:28;14.00;;;3.47;;
4051;SDS011;2040;50.924;11.604;2023-07-08T14:45:55;5.73;;;3.20;;
4051;SDS011;2040;50.924;11.604;2023-07-08T14:48:22;3.38;;;3.08;;
4051;SDS011;2040;50.924;11.604;2023-07-08T14:50:49;4.20;;;3.30;;
4051;SDS011;2040;50.924;11.604;2023-07-08T14:53:15;5.57;;;3.30;;
4051;SDS011;2040;50.924;11.604;2023-07-08T14:55:47;13.65;;;3.65;;
4051;SDS011;2040;50.924;11.604;2023-07-08T14:58:25;6.13;;;3.17;;
4051;SDS011;2040;50.924;11.604;2023-07-08T15:00:55;4.55;;;3.17;;
4051;SDS011;2040;50.924;11.604;2023-07-08T15:03:22;7.80;;;3.85;;
4051;SDS011;2040;50.924;11.604;2023-07-08T15:05:48;5.80;;;3.08;;
4051;SDS011;2040;50.924;11.604;2023-07-08T15:08:13;4.27;;;3.50;;
4051;SDS011;2040;50.924;11.604;2023-07-08T15:10:40;6.13;;;3.80;;
4051;SDS011;2040;50.924;11.604;2023-07-08T15:13:10;6.30;;;3.93;;
4051;SDS011;2040;50.924;11.604;2023-07-08T15:15:38;5.80;;;3.53;;
4051;SDS011;2040;50.924;11.604;2023-07-08T15:18:38;7.07;;;3.40;;
4051;SDS011;2040;50.924;11.604;2023-07-08T15:20:58;6.40;;;3.87;;
4051;SDS011;2040;50.924;11.604;2023-07-08T15:23:24;8.63;;;3.90;;
4051;SDS011;2040;50.924;11.604;2023-07-08T15:25:49;5.80;;;4.20;;
4051;SDS011;2040;50.924;11.604;2023-07-08T15:31:13;6.00;;;3.50;;
4051;SDS011;2040;50.924;11.604;2023-07-08T15:33:47;5.43;;;3.67;;
4051;SDS011;2040;50.924;11.604;2023-07-08T15:36:13;4.17;;;2.93;;
4051;SDS011;2040;50.924;11.604;2023-07-08T15:38:39;4.53;;;3.00;;
4051;SDS011;2040;50.924;11.604;2023-07-08T15:43:49;4.17;;;2.90;;
4051;SDS011;2040;50.924;11.604;2023-07-08T15:46:31;4.83;;;3.27;;
4051;SDS011;2040;50.924;11.604;2023-07-08T15:49:00;4.30;;;3.53;;
4051;SDS011;2040;50.924;11.604;2023-07-08T15:51:26;5.60;;;3.67;;
4051;SDS011;2040;50.924;11.604;2023-07-08T15:53:54;3.80;;;2.77;;
4051;SDS011;2040;50.924;11.604;2023-07-08T15:56:20;4.60;;;3.20;;
4051;SDS011;2040;50.924;11.604;2023-07-08T15:58:46;5.30;;;3.50;;
4051;SDS011;2040;50.924;11.604;2023-07-08T16:01:20;4.70;;;3.90;;
4051;SDS011;2040;50.924;11.604;2023-07-08T16:03:48;6.50;;;3.77;;
4051;SDS011;2040;50.924;11.604;2023-07-08T16:06:17;4.53;;;3.53;;
4051;SDS011;2040;50.924;11.604;2023-07-08T16:08:46;8.80;;;4.37;;
4051;SDS011;2040;50.924;11.604;2023-07-08T16:11:50;5.50;;;3.67;;
4051;SDS011;2040;50.924;11.604;2023-07-08T16:18:08;4.23;;;3.20;;
4051;SDS011;2040;50.924;11.604;2023-07-08T16:20:40;4.53;;;3.67;;
4051;SDS011;2040;50.924;11.604;2023-07-08T16:23:08;4.90;;;3.43;;
4051;SDS011;2040;50.924;11.604;2023-07-08T16:25:44;5.27;;;3.20;;
4051;SDS011;2040;50.924;11.604;2023-07-08T16:28:17;7.37;;;3.93;;
4051;SDS011;2040;50.924;11.604;2023-07-08T16:30:51;5.97;;;3.70;;
4051;SDS011;2040;50.924;11.604;2023-07-08T16:33:23;5.77;;;3.90;;
4051;SDS011;2040;50.924;11.604;2023-07-08T16:35:49;3.70;;;3.07;;
4051;SDS011;2040;50.924;11.604;2023-07-08T16:38:17;4.57;;;2.97;;
4051;SDS011;2040;50.924;11.604;2023-07-08T16:40:43;7.03;;;3.87;;
4051;SDS011;2040;50.924;11.604;2023-07-08T16:43:17;5.90;;;4.17;;
4051;SDS011;2040;50.924;11.604;2023-07-08T16:46:00;6.30;;;3.20;;
4051;SDS011;2040;50.924;11.604;2023-07-08T16:48:26;5.40;;;3.10;;
4051;SDS011;2040;50.924;11.604;2023-07-08T16:50:54;3.73;;;3.20;;
4051;SDS011;2040;50.924;11.604;2023-07-08T16:53:20;7.23;;;4.00;;
4051;SDS011;2040;50.924;11.604;2023-07-08T16:55:49;4.80;;;3.63;;
4051;SDS011;2040;50.924;11.604;2023-07-08T16:58:14;5.90;;;3.47;;
4051;SDS011;2040;50.924;11.604;2023-07-08T17:00:43;6.57;;;3.40;;
4051;SDS011;2040;50.924;11.604;2023-07-08T17:03:11;4.87;;;3.50;;
4051;SDS011;2040;50.924;11.604;2023-07-08T17:05:39;6.77;;;4.23;;